Airfield :







YOU CAN JOIN US ON...

 
LOGIN :

Register | Disclaimer

   EN    FR    IT 

 









Legend :    VFR   Marginal VFR   IFR   Intensive IFR   Very Intensive IFR
Visi :
Ceiling :
>= 8 km
>= 3000ft
5 to 8 km
1000 to 3000 ft
1500m to 5 km
500 to 1000 ft
800 to 1500m
200 to 500 ft
< 800m
< 200 ft
Symbols :   Thunderstorms  Fog  Heavy snow  Heavy precipitations  Wind > 20 kt






- Airport Elevation : 1166 ft


KMPV - Edward F Knapp State

CURRENT METAR :
  • 221651Z AUTO 17016G21KT 10SM CLR 13/05 A3009 RMK AO2 SLP196 T01280050

EXPIRED METARs :
  • 221551Z AUTO 17014G23KT 10SM CLR 13/06 A3011 RMK AO2 SLP203 T01330061
  • 221451Z AUTO 17009KT 10SM CLR 12/07 A3009 RMK AO2 SLP197 T01220067 56020

TAF KMPV
Valid from the 22 at 12:00 until the 23 at 12:00 UTC


221122Z 2212/2312 VRB05KT P6SM OVC180
FM221500 16010G19KT P6SM OVC180
FM222200 16012KT P6SM OVC035 WS020/15045KT
FM230100 17011KT 5SM -RA BR OVC024 WS020/15050KT
FM230500 19006KT 5SM -RA BR OVC017 WS020/16050KT
FM230900 00000KT 5SM -RA BR OVC007 WS020/18035KT



MET'MAP, your aeronautical weather chart ! - Copyright ORBIFLY December 2007 - Disclaimer

ORBIFLY MET'MAP TEAM :

Programming & Development : Alexandra Zaïnal
Concept & Development : Baudouin d'Aumeries
Co-Development & Prog : Marc-Olivier Méhu
Technical & hardware support : Manuel Goepfert

Contact : metmap@orbifly.com




SOURCES & CREDITS :

   NOAA